createdAt,value
2022-10-12T10:27:16.563Z,1023.53
2022-10-12T10:28:16.538Z,1023.44
2022-10-12T10:29:16.487Z,1023.46
2022-10-12T10:30:29.856Z,1023.51
2022-10-12T10:31:16.446Z,1023.52
2022-10-12T10:32:16.425Z,1023.49
2022-10-12T10:33:16.402Z,1023.52
2022-10-12T10:34:16.386Z,1023.51
2022-10-12T10:35:16.361Z,1023.50
2022-10-12T10:36:16.339Z,1023.49
2022-10-12T10:37:16.415Z,1023.50
2022-10-12T10:38:16.297Z,1023.49
2022-10-12T10:39:16.275Z,1023.44
2022-10-12T10:40:16.611Z,1023.46
2022-10-12T10:41:16.236Z,1023.46
2022-10-12T10:42:16.211Z,1023.42
2022-10-12T10:43:16.207Z,1023.47
2022-10-12T10:44:19.607Z,1023.45
2022-10-12T10:45:16.460Z,1023.43
2022-10-12T10:46:16.149Z,1023.41
2022-10-12T10:47:16.103Z,1023.41
2022-10-12T10:48:16.428Z,1023.41
2022-10-12T10:49:16.059Z,1023.42
2022-10-12T10:50:16.309Z,1023.38
2022-10-12T10:51:16.015Z,1023.40
2022-10-12T10:52:15.995Z,1023.35
2022-10-12T10:53:15.973Z,1023.37
2022-10-12T10:54:15.946Z,1023.34
2022-10-12T10:55:15.925Z,1023.29
2022-10-12T10:56:15.907Z,1023.31
2022-10-12T10:57:15.884Z,1023.32
2022-10-12T10:58:15.859Z,1023.31
2022-10-12T10:59:15.862Z,1023.30
2022-10-12T11:00:41.538Z,1023.29
2022-10-12T11:01:15.855Z,1023.24
2022-10-12T11:02:15.772Z,1023.25
2022-10-12T11:03:15.795Z,1023.27
2022-10-12T11:04:15.728Z,1023.27
2022-10-12T11:05:15.922Z,1023.29
2022-10-12T11:06:15.684Z,1023.25
2022-10-12T11:07:15.659Z,1023.24
2022-10-12T11:08:15.635Z,1023.24
2022-10-12T11:09:15.637Z,1023.22
2022-10-12T11:10:15.591Z,1023.24
2022-10-12T11:11:15.575Z,1023.20
2022-10-12T11:12:15.547Z,1023.19
2022-10-12T11:13:15.525Z,1023.11
2022-10-12T11:14:15.504Z,1023.13
2022-10-12T11:15:15.501Z,1023.15
2022-10-12T11:16:15.459Z,1023.12
2022-10-12T11:17:15.437Z,1023.09
2022-10-12T11:18:15.415Z,1023.13
2022-10-12T11:19:15.392Z,1023.11
2022-10-12T11:20:18.852Z,1023.07
2022-10-12T11:21:15.346Z,1023.11
2022-10-12T11:22:15.326Z,1023.05
2022-10-12T11:23:15.303Z,1023.07
2022-10-12T11:24:15.279Z,1023.06
2022-10-12T11:25:15.257Z,1023.05
2022-10-12T11:26:15.237Z,1023.06
2022-10-12T11:27:15.215Z,1023.06
2022-10-12T11:28:15.234Z,1023.08
2022-10-12T11:29:15.171Z,1023.06
2022-10-12T11:30:15.146Z,1023.06
2022-10-12T11:31:15.144Z,1023.02
2022-10-12T11:32:15.228Z,1023.03
2022-10-12T11:33:15.081Z,1022.98
2022-10-12T11:34:15.061Z,1022.99
2022-10-12T11:35:15.034Z,1022.95
2022-10-12T11:36:15.010Z,1022.94
2022-10-12T11:37:19.556Z,1022.93
2022-10-12T11:38:15.471Z,1022.92
2022-10-12T11:39:17.082Z,1022.94
2022-10-12T11:40:14.924Z,1022.92
2022-10-12T11:41:36.542Z,1022.91
2022-10-12T11:42:22.851Z,1022.90
2022-10-12T11:43:14.861Z,1022.91
2022-10-12T11:44:14.831Z,1022.88
2022-10-12T11:45:14.819Z,1022.93
2022-10-12T11:46:14.788Z,1022.93
2022-10-12T11:47:14.789Z,1022.92
2022-10-12T11:48:14.743Z,1022.90
2022-10-12T11:49:14.717Z,1022.91
2022-10-12T11:50:14.696Z,1022.87
2022-10-12T11:51:14.671Z,1022.87
2022-10-12T11:52:14.648Z,1022.89
2022-10-12T11:53:14.624Z,1022.85
2022-10-12T11:54:14.967Z,1022.84
2022-10-12T11:55:14.576Z,1022.84
2022-10-12T11:56:14.558Z,1022.80
2022-10-12T11:57:14.532Z,1022.76
2022-10-12T11:58:14.509Z,1022.79
2022-10-12T11:59:14.484Z,1022.81
2022-10-12T12:00:14.459Z,1022.82
2022-10-12T12:01:14.437Z,1022.78
2022-10-12T12:02:14.419Z,1022.80
2022-10-12T12:03:14.520Z,1022.72
2022-10-12T12:04:39.983Z,1022.72
2022-10-12T12:05:16.722Z,1022.71
2022-10-12T12:06:14.325Z,1022.72
2022-10-12T12:07:14.306Z,1022.71
2022-10-12T12:08:14.282Z,1022.66
2022-10-12T12:09:14.310Z,1022.66
2022-10-12T12:10:14.237Z,1022.62
2022-10-12T12:11:14.213Z,1022.62
2022-10-12T12:12:14.191Z,1022.59
2022-10-12T12:13:14.168Z,1022.59
2022-10-12T12:14:14.147Z,1022.60
2022-10-12T12:15:14.123Z,1022.57
2022-10-12T12:16:14.098Z,1022.57
2022-10-12T12:17:14.079Z,1022.59
2022-10-12T12:18:14.053Z,1022.58
2022-10-12T12:19:14.054Z,1022.58
2022-10-12T12:20:14.010Z,1022.60
2022-10-12T12:21:13.984Z,1022.58
2022-10-12T12:22:13.962Z,1022.54
2022-10-12T12:23:13.945Z,1022.53
2022-10-12T12:24:13.922Z,1022.52
2022-10-12T12:25:13.944Z,1022.56
2022-10-12T12:26:16.891Z,1022.59
2022-10-12T12:27:13.850Z,1022.57
2022-10-12T12:28:13.864Z,1022.57
2022-10-12T12:29:13.808Z,1022.58
2022-10-12T12:30:13.785Z,1022.58
2022-10-12T12:31:13.762Z,1022.57
2022-10-12T12:32:13.746Z,1022.53
2022-10-12T12:33:13.719Z,1022.55
2022-10-12T12:34:13.702Z,1022.55
2022-10-12T12:35:13.826Z,1022.57
2022-10-12T12:36:13.647Z,1022.56
2022-10-12T12:37:13.632Z,1022.51
2022-10-12T12:38:13.605Z,1022.53
2022-10-12T12:39:13.580Z,1022.53
2022-10-12T12:40:13.560Z,1022.54
2022-10-12T12:41:13.537Z,1022.51
2022-10-12T12:42:13.514Z,1022.47
2022-10-12T12:43:13.493Z,1022.47
2022-10-12T12:44:13.467Z,1022.45
2022-10-12T12:45:13.445Z,1022.38
2022-10-12T12:46:13.418Z,1022.40
2022-10-12T12:47:43.865Z,1022.36
2022-10-12T12:48:13.373Z,1022.38
2022-10-12T12:49:13.353Z,1022.35
2022-10-12T12:50:13.329Z,1022.33
2022-10-12T12:51:13.324Z,1022.33
2022-10-12T12:52:13.283Z,1022.31
2022-10-12T12:53:13.259Z,1022.30
2022-10-12T12:54:13.237Z,1022.23
2022-10-12T12:55:13.214Z,1022.26
2022-10-12T12:56:13.188Z,1022.23
2022-10-12T12:57:13.166Z,1022.23
2022-10-12T12:58:13.148Z,1022.23
2022-10-12T12:59:13.121Z,1022.17
2022-10-12T13:00:13.298Z,1022.20
2022-10-12T13:01:13.162Z,1022.24
2022-10-12T13:02:13.052Z,1022.25
2022-10-12T13:03:13.034Z,1022.23
2022-10-12T13:04:13.006Z,1022.26
2022-10-12T13:05:12.992Z,1022.22
2022-10-12T13:06:12.958Z,1022.24
2022-10-12T13:07:12.960Z,1022.25
2022-10-12T13:08:12.913Z,1022.22
2022-10-12T13:09:12.887Z,1022.16
2022-10-12T13:10:12.867Z,1022.23
2022-10-12T13:11:12.846Z,1022.21
2022-10-12T13:12:12.820Z,1022.16
2022-10-12T13:13:12.800Z,1022.23
2022-10-12T13:14:12.775Z,1022.24
2022-10-12T13:15:12.750Z,1022.26
2022-10-12T13:16:19.540Z,1022.27
2022-10-12T13:18:28.471Z,1022.24
2022-10-12T13:19:12.661Z,1022.26
2022-10-12T13:20:12.635Z,1022.29
2022-10-12T13:21:12.616Z,1022.22
2022-10-12T13:22:12.591Z,1022.19
2022-10-12T13:23:12.619Z,1022.18
2022-10-12T13:24:12.552Z,1022.14
2022-10-12T13:25:12.524Z,1022.15
2022-10-12T13:26:12.505Z,1022.16
2022-10-12T13:27:12.480Z,1022.12
2022-10-12T13:28:12.481Z,1022.12
2022-10-12T13:29:12.431Z,1022.17
2022-10-12T13:30:12.407Z,1022.15
2022-10-12T13:31:12.384Z,1022.10
2022-10-12T13:32:12.363Z,1022.12
2022-10-12T13:33:12.339Z,1022.10
2022-10-12T13:34:12.315Z,1022.13
2022-10-12T13:35:12.292Z,1022.11
2022-10-12T13:36:12.268Z,1022.08
2022-10-12T13:37:12.269Z,1022.07
2022-10-12T13:38:12.223Z,1022.05
2022-10-12T13:39:12.198Z,1022.06
2022-10-12T13:40:12.175Z,1022.02
2022-10-12T13:41:12.151Z,1022.00
2022-10-12T13:42:12.129Z,1021.96
2022-10-12T13:43:12.104Z,1021.98
2022-10-12T13:44:12.079Z,1021.95
2022-10-12T13:45:12.060Z,1021.95
2022-10-12T13:46:12.039Z,1021.94
2022-10-12T13:47:12.015Z,1021.92
2022-10-12T13:48:11.988Z,1021.89
2022-10-12T13:49:11.988Z,1021.90
2022-10-12T13:50:11.940Z,1021.89
2022-10-12T13:51:11.919Z,1021.90
2022-10-12T13:52:11.892Z,1021.87
2022-10-12T13:53:11.887Z,1021.88
2022-10-12T13:54:11.848Z,1021.87
2022-10-12T13:55:11.824Z,1021.84
2022-10-12T13:56:11.799Z,1021.81
2022-10-12T13:57:11.783Z,1021.79
2022-10-12T13:58:11.755Z,1021.79
2022-10-12T13:59:13.365Z,1021.75
2022-10-12T14:00:11.708Z,1021.71
2022-10-12T14:01:11.746Z,1021.69
2022-10-12T14:02:11.658Z,1021.64
2022-10-12T14:03:11.634Z,1021.66
2022-10-12T14:04:11.614Z,1021.62
2022-10-12T14:05:11.588Z,1021.63
2022-10-12T14:06:11.565Z,1021.60
2022-10-12T14:07:11.545Z,1021.60
2022-10-12T14:08:11.520Z,1021.60
2022-10-12T14:09:11.514Z,1021.58
2022-10-12T14:10:11.472Z,1021.61
2022-10-12T14:11:11.450Z,1021.56
2022-10-12T14:12:11.427Z,1021.54
2022-10-12T14:13:11.401Z,1021.57
2022-10-12T14:14:11.379Z,1021.55
2022-10-12T14:15:11.356Z,1021.55
2022-10-12T14:17:11.407Z,1021.50
2022-10-12T14:18:11.283Z,1021.49
2022-10-12T14:19:11.259Z,1021.50
2022-10-12T14:20:11.236Z,1021.53
2022-10-12T14:21:11.212Z,1021.49
2022-10-12T14:22:11.190Z,1021.49
2022-10-12T14:23:11.166Z,1021.49
2022-10-12T14:24:11.145Z,1021.47
2022-10-12T14:25:11.148Z,1021.44
2022-10-12T14:26:11.097Z,1021.44
2022-10-12T14:27:11.076Z,1021.51
2022-10-12T14:28:11.095Z,1021.50
2022-10-12T14:29:11.029Z,1021.48
2022-10-12T14:30:11.007Z,1021.49
2022-10-12T14:31:10.980Z,1021.47
2022-10-12T14:32:10.960Z,1021.45
2022-10-12T14:33:11.465Z,1021.46
2022-10-12T14:34:12.480Z,1021.45
2022-10-12T14:35:10.891Z,1021.44
2022-10-12T14:36:10.861Z,1021.43
2022-10-12T14:37:10.840Z,1021.45
2022-10-12T14:38:10.819Z,1021.45
2022-10-12T14:39:10.796Z,1021.43
2022-10-12T14:40:10.772Z,1021.42
2022-10-12T14:41:10.776Z,1021.43
2022-10-12T14:42:10.725Z,1021.40
2022-10-12T14:43:10.822Z,1021.40
2022-10-12T14:44:11.172Z,1021.39
2022-10-12T14:45:10.649Z,1021.40
2022-10-12T14:46:10.633Z,1021.38
2022-10-12T14:47:10.859Z,1021.39
2022-10-12T14:48:10.633Z,1021.38
2022-10-12T14:49:10.564Z,1021.37
2022-10-12T14:50:10.537Z,1021.37
2022-10-12T14:51:13.172Z,1021.37
2022-10-12T14:52:10.492Z,1021.38
2022-10-12T14:53:10.468Z,1021.37
2022-10-12T14:54:10.442Z,1021.34
2022-10-12T14:55:10.421Z,1021.32
2022-10-12T14:56:10.395Z,1021.30
2022-10-12T14:57:10.723Z,1021.31
2022-10-12T14:58:10.351Z,1021.28
2022-10-12T14:59:10.325Z,1021.26
2022-10-12T15:00:10.301Z,1021.27
2022-10-12T15:01:10.400Z,1021.28
2022-10-12T15:02:10.254Z,1021.24
2022-10-12T15:03:10.230Z,1021.25
2022-10-12T15:04:10.208Z,1021.21
2022-10-12T15:05:10.184Z,1021.21
2022-10-12T15:06:10.165Z,1021.24
2022-10-12T15:07:10.457Z,1021.19
2022-10-12T15:08:10.160Z,1021.17
2022-10-12T15:09:10.087Z,1021.21
2022-10-12T15:10:10.063Z,1021.15
2022-10-12T15:11:10.043Z,1021.17
2022-10-12T15:12:10.024Z,1021.12
2022-10-12T15:13:10.017Z,1021.17
2022-10-12T15:14:09.971Z,1021.14
2022-10-12T15:15:09.947Z,1021.17
2022-10-12T15:16:09.921Z,1021.17
2022-10-12T15:17:10.176Z,1021.13
2022-10-12T15:18:09.880Z,1021.13
2022-10-12T15:19:09.857Z,1021.14
2022-10-12T15:20:09.836Z,1021.09
2022-10-12T15:21:09.809Z,1021.10
2022-10-12T15:22:09.781Z,1021.04
2022-10-12T15:23:09.763Z,1021.04
2022-10-12T15:24:09.734Z,1021.06
2022-10-12T15:25:09.715Z,1021.08
2022-10-12T15:26:09.683Z,1021.04
2022-10-12T15:27:09.774Z,1021.00
2022-10-12T15:28:09.634Z,1020.96
2022-10-12T15:29:09.644Z,1020.97
2022-10-12T15:30:09.590Z,1020.97
2022-10-12T15:31:17.401Z,1020.94
2022-10-12T15:32:09.539Z,1020.93
2022-10-12T15:33:09.514Z,1020.91
2022-10-12T15:34:09.496Z,1020.90
2022-10-12T15:35:09.469Z,1020.87
2022-10-12T15:36:09.549Z,1020.87
2022-10-12T15:37:09.563Z,1020.85
2022-10-12T15:38:09.401Z,1020.85
2022-10-12T15:39:09.373Z,1020.81
2022-10-12T15:40:09.348Z,1020.79
2022-10-12T15:41:09.323Z,1020.76
2022-10-12T15:42:09.296Z,1020.77
2022-10-12T15:43:09.316Z,1020.75
2022-10-12T15:44:09.249Z,1020.72
2022-10-12T15:45:09.379Z,1020.74
2022-10-12T15:46:09.197Z,1020.77
2022-10-12T15:47:09.174Z,1020.76
2022-10-12T15:48:09.151Z,1020.72
2022-10-12T15:49:16.231Z,1020.77
2022-10-12T15:50:09.146Z,1020.77
2022-10-12T15:51:09.078Z,1020.73
2022-10-12T15:52:09.049Z,1020.71
2022-10-12T15:53:09.021Z,1020.70
2022-10-12T15:54:08.995Z,1020.72
2022-10-12T15:55:08.969Z,1020.70
2022-10-12T15:56:08.946Z,1020.71
2022-10-12T15:57:08.918Z,1020.71
2022-10-12T15:58:08.893Z,1020.66
2022-10-12T15:59:08.868Z,1020.65
2022-10-12T16:00:08.848Z,1020.63
2022-10-12T16:01:09.015Z,1020.63
2022-10-12T16:02:08.793Z,1020.62
2022-10-12T16:03:08.769Z,1020.60
2022-10-12T16:04:08.894Z,1020.64
2022-10-12T16:05:08.715Z,1020.64
2022-10-12T16:06:08.756Z,1020.64
2022-10-12T16:07:08.983Z,1020.63
2022-10-12T16:08:08.638Z,1020.61
2022-10-12T16:09:08.609Z,1020.59
2022-10-12T16:10:08.587Z,1020.60
2022-10-12T16:11:08.560Z,1020.59
2022-10-12T16:12:08.532Z,1020.62
2022-10-12T16:13:08.511Z,1020.63
2022-10-12T16:14:08.479Z,1020.57
2022-10-12T16:15:08.452Z,1020.58
2022-10-12T16:16:08.426Z,1020.59
2022-10-12T16:17:08.420Z,1020.55
2022-10-12T16:18:08.375Z,1020.58
2022-10-12T16:19:08.350Z,1020.52
2022-10-12T16:20:08.319Z,1020.50
2022-10-12T16:21:08.292Z,1020.48
2022-10-12T16:22:08.269Z,1020.45
2022-10-12T16:23:08.239Z,1020.37
2022-10-12T16:24:08.212Z,1020.40
2022-10-12T16:27:21.698Z,1020.36
2022-10-12T16:27:22.235Z,1020.34
2022-10-12T16:28:27.633Z,1020.34
2022-10-12T16:31:38.623Z,1020.35
2022-10-12T16:32:23.811Z,1020.32
2022-10-12T16:34:10.386Z,1020.35
2022-10-12T16:34:25.714Z,1020.32
2022-10-12T16:36:18.834Z,1020.27
2022-10-12T16:36:24.380Z,1020.27
2022-10-12T16:39:22.527Z,1020.23
2022-10-12T16:39:25.043Z,1020.24
2022-10-12T16:40:33.166Z,1020.22
2022-10-12T16:41:23.424Z,1020.25
2022-10-12T16:42:23.597Z,1020.23
2022-10-12T16:43:57.205Z,1020.18
2022-10-12T16:44:26.105Z,1020.18
2022-10-12T16:45:29.078Z,1020.13
2022-10-12T16:47:48.043Z,1020.18
2022-10-12T16:47:48.552Z,1020.20
2022-10-12T16:49:09.879Z,1020.16
2022-10-12T16:49:48.488Z,1020.13
2022-10-12T16:50:59.086Z,1020.14
2022-10-12T16:51:54.441Z,1020.14
2022-10-12T16:56:28.750Z,1020.20
2022-10-12T16:58:09.995Z,1020.24
2022-10-12T16:58:10.486Z,1020.26
2022-10-12T17:02:47.732Z,1020.26
2022-10-12T17:02:48.499Z,1020.27
2022-10-12T17:04:18.671Z,1020.24
2022-10-12T17:05:09.172Z,1020.31
2022-10-12T17:06:13.058Z,1020.33
2022-10-12T17:07:12.450Z,1020.35
2022-10-12T17:11:10.319Z,1020.35
2022-10-12T17:13:02.581Z,1020.31
2022-10-12T17:13:03.034Z,1020.32
2022-10-12T17:14:54.134Z,1020.35
2022-10-12T17:16:14.343Z,1020.33
2022-10-12T17:16:36.571Z,1020.32
2022-10-12T17:27:31.426Z,1020.25
2022-10-12T17:27:31.441Z,1020.28
2022-10-12T17:28:28.492Z,1020.27
2022-10-12T17:30:49.480Z,1020.27
2022-10-12T17:37:03.660Z,1020.30
2022-10-12T17:37:04.127Z,1020.25
2022-10-12T17:38:08.084Z,1020.24
2022-10-12T17:40:32.238Z,1020.23
2022-10-12T17:40:32.702Z,1020.24
2022-10-12T17:42:26.289Z,1020.25
2022-10-12T17:44:04.083Z,1020.25
2022-10-12T17:44:34.767Z,1020.29
2022-10-12T17:45:50.561Z,1020.28
2022-10-12T17:47:17.189Z,1020.28
2022-10-12T17:47:22.705Z,1020.29
2022-10-12T17:49:47.354Z,1020.23
2022-10-12T17:49:47.824Z,1020.26
2022-10-12T17:50:47.796Z,1020.26
2022-10-12T17:53:11.487Z,1020.20
2022-10-12T17:53:44.967Z,1020.18
2022-10-12T17:54:27.032Z,1020.23
2022-10-12T17:55:29.582Z,1020.21
2022-10-12T17:56:14.181Z,1020.21
2022-10-12T17:57:11.924Z,1020.24
2022-10-12T17:58:58.290Z,1020.23
2022-10-12T17:59:17.273Z,1020.24
2022-10-12T18:02:49.073Z,1020.20
2022-10-12T18:02:49.542Z,1020.20
2022-10-12T18:03:51.164Z,1020.22
2022-10-12T18:11:29.611Z,1020.08
2022-10-12T18:11:30.080Z,1020.10
2022-10-12T18:12:33.534Z,1020.10
2022-10-12T18:14:24.700Z,1020.09
2022-10-12T18:14:30.741Z,1020.08
2022-10-12T18:15:31.856Z,1020.10
2022-10-12T18:18:44.428Z,1020.08
2022-10-12T18:18:44.914Z,1020.05
2022-10-12T18:20:20.326Z,1020.08
2022-10-12T18:23:21.325Z,1020.01
2022-10-12T18:25:59.876Z,1019.92
2022-10-12T18:26:00.778Z,1019.93
2022-10-12T18:27:03.173Z,1019.91
2022-10-12T18:28:00.285Z,1019.92
2022-10-12T18:29:42.851Z,1019.91
2022-10-12T18:30:00.863Z,1019.89
2022-10-12T18:31:27.748Z,1019.88
2022-10-12T18:32:00.223Z,1019.86
2022-10-12T18:35:55.587Z,1019.89
2022-10-12T18:35:56.279Z,1019.89
2022-10-12T18:50:03.816Z,1019.91
2022-10-12T18:50:09.280Z,1019.91
2022-10-12T18:51:13.530Z,1019.92
2022-10-12T18:55:00.148Z,1019.93
2022-10-12T18:55:15.092Z,1019.90
2022-10-12T18:56:00.588Z,1019.93
2022-10-12T18:58:25.760Z,1019.89
2022-10-12T18:58:26.229Z,1019.91
2022-10-12T18:59:26.209Z,1019.91
2022-10-12T19:05:12.991Z,1019.85
2022-10-12T19:05:13.652Z,1019.84
2022-10-12T19:06:16.329Z,1019.85
2022-10-12T19:07:13.621Z,1019.83
2022-10-12T19:09:36.404Z,1019.79
2022-10-12T19:10:01.670Z,1019.81
2022-10-12T19:11:02.044Z,1019.78
2022-10-12T19:12:00.327Z,1019.79
2022-10-12T19:12:38.643Z,1019.78
2022-10-12T19:13:41.318Z,1019.75
2022-10-12T19:14:54.946Z,1019.75
2022-10-12T19:17:42.909Z,1019.70
2022-10-12T19:17:58.228Z,1019.70
2022-10-12T19:19:50.456Z,1019.70
2022-10-12T19:19:50.995Z,1019.72
2022-10-12T19:22:19.895Z,1019.66
2022-10-12T19:24:03.605Z,1019.66
2022-10-12T19:24:08.061Z,1019.63
2022-10-12T19:25:27.302Z,1019.60
2022-10-12T19:33:01.043Z,1019.64
2022-10-12T19:33:05.769Z,1019.68
2022-10-12T19:34:46.297Z,1019.66
2022-10-12T19:35:05.534Z,1019.63
2022-10-12T19:36:47.152Z,1019.67
2022-10-12T19:37:20.055Z,1019.67
2022-10-12T19:38:44.816Z,1019.68
2022-10-12T19:39:16.143Z,1019.67
2022-10-12T19:40:22.128Z,1019.62
2022-10-12T19:42:04.884Z,1019.65
2022-10-12T19:42:10.688Z,1019.66
2022-10-12T19:44:17.154Z,1019.61
2022-10-12T19:44:17.625Z,1019.63
2022-10-12T19:45:19.301Z,1019.60
2022-10-12T19:47:26.477Z,1019.63
2022-10-12T19:47:27.147Z,1019.63
2022-10-12T19:48:30.388Z,1019.63
2022-10-12T19:53:52.375Z,1019.64
2022-10-12T19:53:53.015Z,1019.59
2022-10-12T19:54:52.984Z,1019.62
2022-10-12T19:58:10.414Z,1019.59
2022-10-12T19:58:10.885Z,1019.63
2022-10-12T19:59:50.687Z,1019.58
2022-10-12T20:00:16.170Z,1019.59
2022-10-12T20:01:26.287Z,1019.60
2022-10-12T20:02:38.575Z,1019.58
2022-10-12T20:05:05.482Z,1019.56
2022-10-12T20:05:26.842Z,1019.58
2022-10-12T20:06:06.116Z,1019.57
2022-10-12T20:08:15.678Z,1019.53
2022-10-12T20:08:50.360Z,1019.54
2022-10-12T20:11:53.534Z,1019.59
2022-10-12T20:11:54.007Z,1019.61
2022-10-12T20:17:29.385Z,1019.60
2022-10-12T20:17:30.203Z,1019.62
2022-10-12T20:19:04.247Z,1019.64
2022-10-12T20:19:34.721Z,1019.66
2022-10-12T20:23:59.856Z,1019.69
2022-10-12T20:26:31.743Z,1019.67
2022-10-12T20:26:32.211Z,1019.66
2022-10-12T20:27:32.302Z,1019.65
2022-10-12T20:28:32.164Z,1019.66
2022-10-12T20:30:06.144Z,1019.61
2022-10-12T20:39:36.376Z,1019.50
2022-10-12T20:39:36.841Z,1019.47
2022-10-12T20:40:56.672Z,1019.47
2022-10-12T20:41:39.020Z,1019.51
2022-10-12T20:44:50.346Z,1019.48
2022-10-12T20:44:50.730Z,1019.53
2022-10-12T20:47:09.425Z,1019.45
2022-10-12T20:47:09.892Z,1019.48
2022-10-12T20:48:24.442Z,1019.48
2022-10-12T20:49:35.512Z,1019.51
2022-10-12T20:52:07.627Z,1019.48
2022-10-12T20:52:08.417Z,1019.50
2022-10-12T20:53:44.923Z,1019.47
2022-10-12T20:55:01.302Z,1019.44
2022-10-12T20:55:29.746Z,1019.46
2022-10-12T20:59:17.026Z,1019.42
2022-10-12T20:59:54.469Z,1019.42
2022-10-12T21:01:37.675Z,1019.42
2022-10-12T21:01:40.572Z,1019.40
2022-10-12T21:06:28.217Z,1019.40
